Time;durP1;ratioP1;P1;durP2;ratioP2;P2;SDS_P1;SDS_P2;PMS_P1;PMS_P2;Temp;Humidity;BMP_temperature;BMP_pressure;BME280_temperature;BME280_humidity;BME280_pressure;Samples;Min_cycle;Max_cycle;Signal;HPM_P1;HPM_P2
2022/07/01 00:00:47;;;;;;;3.47;2.93;;;14.30;99.90;;;;;;5098267;28;20256;-44
2022/07/01 00:03:13;;;;;;;5.40;3.07;;;14.30;99.90;;;;;;5102099;28;20171;-44
2022/07/01 00:05:53;;;;;;;5.37;3.37;;;14.20;99.90;;;;;;5103084;28;20215;-45
2022/07/01 00:08:19;;;;;;;4.43;3.30;;;14.20;99.90;;;;;;5098608;28;20275;-38
2022/07/01 00:10:44;;;;;;;4.07;3.63;;;14.20;99.90;;;;;;5097272;28;20171;-41
2022/07/01 00:13:10;;;;;;;8.07;4.00;;;14.20;99.90;;;;;;5096632;28;20210;-40
2022/07/01 00:15:35;;;;;;;6.20;3.77;;;14.10;99.90;;;;;;5096711;28;20183;-41
2022/07/01 00:18:02;;;;;;;4.90;3.70;;;14.10;99.90;;;;;;5096650;28;20178;-38
2022/07/01 00:20:28;;;;;;;8.33;4.37;;;14.10;99.90;;;;;;5095377;28;20237;-39
2022/07/01 00:22:54;;;;;;;7.80;4.57;;;14.10;99.90;;;;;;5097719;28;20211;-44
2022/07/01 00:25:19;;;;;;;8.60;4.57;;;14.10;99.90;;;;;;5097796;28;20661;-39
2022/07/01 00:27:45;;;;;;;6.80;4.87;;;14.10;99.90;;;;;;5096841;28;20665;-39
2022/07/01 00:30:11;;;;;;;7.77;4.77;;;14.10;99.90;;;;;;5096385;28;20203;-40
2022/07/01 00:32:37;;;;;;;10.20;5.23;;;14.00;99.90;;;;;;5097009;28;20194;-40
2022/07/01 00:35:03;;;;;;;9.53;5.40;;;14.00;99.90;;;;;;5096956;28;20195;-40
2022/07/01 00:37:29;;;;;;;8.63;5.63;;;14.00;99.90;;;;;;5097360;28;20186;-43
2022/07/01 00:39:54;;;;;;;13.33;5.50;;;14.00;99.90;;;;;;5099822;28;20210;-43
2022/07/01 00:42:20;;;;;;;10.73;5.23;;;14.00;99.90;;;;;;5096524;28;20187;-40
2022/07/01 00:44:46;;;;;;;6.93;5.10;;;13.90;99.90;;;;;;5096190;28;20265;-40
2022/07/01 00:47:13;;;;;;;7.63;5.50;;;13.90;99.90;;;;;;5096154;28;20186;-41
2022/07/01 00:49:39;;;;;;;11.73;5.87;;;13.90;99.90;;;;;;5096320;28;20217;-40
2022/07/01 00:52:07;;;;;;;9.53;5.70;;;13.90;99.90;;;;;;5096449;28;20290;-40
2022/07/01 00:54:36;;;;;;;8.03;5.47;;;13.90;99.90;;;;;;5096442;28;20638;-41
2022/07/01 00:57:10;;;;;;;8.33;5.37;;;13.90;99.90;;;;;;5096665;28;20193;-40
2022/07/01 00:59:37;;;;;;;7.73;4.87;;;13.90;99.90;;;;;;5096343;28;20594;-40
2022/07/01 01:02:04;;;;;;;10.47;5.40;;;13.90;99.90;;;;;;5096131;28;20179;-42
2022/07/01 01:04:30;;;;;;;7.53;5.03;;;13.90;99.90;;;;;;5096220;28;20191;-41
2022/07/01 01:06:56;;;;;;;8.47;4.70;;;13.90;99.90;;;;;;5094991;28;20261;-39
2022/07/01 01:09:22;;;;;;;7.93;4.80;;;13.80;99.90;;;;;;5095605;28;20218;-41
2022/07/01 01:11:48;;;;;;;9.10;5.50;;;13.90;99.90;;;;;;5095798;28;20670;-40
2022/07/01 01:14:13;;;;;;;7.23;5.00;;;13.90;99.90;;;;;;5095418;28;20239;-39
2022/07/01 01:16:39;;;;;;;12.27;5.53;;;13.80;99.90;;;;;;5095646;28;20585;-39
2022/07/01 01:19:06;;;;;;;9.40;5.30;;;13.90;99.90;;;;;;5095392;28;20199;-40
2022/07/01 01:21:33;;;;;;;11.10;5.80;;;13.90;99.90;;;;;;5095298;28;20240;-39
2022/07/01 01:24:02;;;;;;;8.27;5.60;;;13.80;99.90;;;;;;5095488;28;20258;-39
2022/07/01 01:26:28;;;;;;;9.33;5.90;;;13.80;99.90;;;;;;5095201;28;20236;-39
2022/07/01 01:28:54;;;;;;;8.73;5.40;;;13.80;99.90;;;;;;5095303;28;20670;-38
2022/07/01 01:31:30;;;;;;;9.63;5.07;;;13.70;99.90;;;;;;5095334;28;20183;-39
2022/07/01 01:33:56;;;;;;;6.97;4.57;;;13.80;99.90;;;;;;5095665;28;20563;-40
2022/07/01 01:36:22;;;;;;;5.53;4.47;;;13.70;99.90;;;;;;5093694;28;20198;-39
2022/07/01 01:38:47;;;;;;;6.67;4.47;;;13.80;99.90;;;;;;5093630;28;20261;-40
2022/07/01 01:41:13;;;;;;;5.37;3.67;;;13.70;99.90;;;;;;5095217;28;20187;-39
2022/07/01 01:43:39;;;;;;;6.67;4.23;;;13.70;99.90;;;;;;5095116;28;20210;-41
2022/07/01 01:46:04;;;;;;;7.03;3.73;;;13.70;99.90;;;;;;5094771;28;20171;-39
2022/07/01 01:48:31;;;;;;;6.13;3.87;;;13.60;99.90;;;;;;5094608;28;20243;-38
2022/07/01 01:50:57;;;;;;;8.23;3.87;;;13.60;99.90;;;;;;5095303;28;20638;-39
2022/07/01 01:53:23;;;;;;;4.77;3.57;;;13.70;99.90;;;;;;5094762;28;20198;-38
2022/07/01 01:55:49;;;;;;;6.03;3.50;;;13.70;99.90;;;;;;5094655;28;20175;-40
2022/07/01 01:58:15;;;;;;;7.67;3.30;;;13.60;99.90;;;;;;5094428;28;20175;-41
2022/07/01 02:00:40;;;;;;;5.03;2.80;;;13.60;99.90;;;;;;5093827;28;20294;-39
2022/07/01 02:03:06;;;;;;;5.30;2.53;;;13.60;99.90;;;;;;5094496;28;20186;-40
2022/07/01 02:05:33;;;;;;;8.33;2.40;;;13.70;99.90;;;;;;5094725;28;20181;-40
2022/07/01 02:07:59;;;;;;;4.97;2.50;;;13.60;99.90;;;;;;5094220;28;20212;-41
2022/07/01 02:10:24;;;;;;;7.63;3.43;;;13.70;99.90;;;;;;5094627;28;20211;-38
2022/07/01 02:12:50;;;;;;;4.93;3.27;;;13.60;99.90;;;;;;5094137;28;20198;-38
2022/07/01 02:15:16;;;;;;;5.70;3.67;;;13.60;99.90;;;;;;5094246;28;20627;-38
2022/07/01 02:17:41;;;;;;;6.37;3.43;;;13.60;99.90;;;;;;5094192;28;20186;-40
2022/07/01 02:20:07;;;;;;;5.87;3.37;;;13.60;99.90;;;;;;5094060;28;20210;-40
2022/07/01 02:22:33;;;;;;;4.70;2.97;;;13.60;99.90;;;;;;5076076;28;20183;-39
2022/07/01 02:24:59;;;;;;;5.40;3.67;;;13.60;99.90;;;;;;5092893;28;20538;-40
2022/07/01 02:27:24;;;;;;;6.10;3.40;;;13.60;99.90;;;;;;5094325;28;20270;-41
2022/07/01 02:29:50;;;;;;;6.50;2.80;;;13.60;99.90;;;;;;5094698;28;20585;-42
2022/07/01 02:32:15;;;;;;;5.10;2.70;;;13.60;99.90;;;;;;5094178;28;20234;-39
2022/07/01 02:34:41;;;;;;;5.27;2.70;;;13.60;99.90;;;;;;5093903;28;20182;-40
2022/07/01 02:37:06;;;;;;;5.03;2.20;;;13.50;99.90;;;;;;5094246;28;20206;-40
2022/07/01 02:39:35;;;;;;;5.20;2.60;;;13.50;99.90;;;;;;5093822;28;20226;-41
2022/07/01 02:44:44;;;;;;;7.73;2.23;;;13.50;99.90;;;;;;5094168;28;20174;-38
2022/07/01 02:47:11;;;;;;;3.53;2.07;;;13.50;99.90;;;;;;5093788;28;20182;-40
2022/07/01 02:49:36;;;;;;;3.30;2.10;;;13.50;99.90;;;;;;5093561;28;20207;-41
2022/07/01 02:52:03;;;;;;;2.90;2.30;;;13.40;99.90;;;;;;5093679;28;20209;-40
2022/07/01 02:54:30;;;;;;;2.00;1.67;;;13.40;99.90;;;;;;5092522;28;20250;-39
2022/07/01 02:56:55;;;;;;;4.23;1.90;;;13.40;99.90;;;;;;5093572;28;20256;-40
2022/07/01 02:59:21;;;;;;;7.27;1.77;;;13.30;99.90;;;;;;5093707;28;20285;-38
2022/07/01 03:01:46;;;;;;;7.33;2.00;;;13.30;99.90;;;;;;5093520;28;20268;-40
2022/07/01 03:04:12;;;;;;;3.70;1.77;;;13.30;99.90;;;;;;5093527;28;20187;-41
2022/07/01 03:06:38;;;;;;;4.47;1.67;;;13.30;99.90;;;;;;5093779;28;20172;-41
2022/07/01 03:09:04;;;;;;;6.40;2.10;;;13.30;99.90;;;;;;5093276;28;20207;-41
2022/07/01 03:11:29;;;;;;;6.17;2.27;;;13.20;99.90;;;;;;5093291;28;20203;-42
2022/07/01 03:13:55;;;;;;;7.50;2.10;;;13.20;99.90;;;;;;5093404;28;20197;-39
2022/07/01 03:16:20;;;;;;;5.33;2.10;;;13.20;99.90;;;;;;5093875;28;20205;-40
2022/07/01 03:18:46;;;;;;;4.57;1.90;;;13.20;99.90;;;;;;5093598;28;20561;-41
2022/07/01 03:21:12;;;;;;;3.87;2.43;;;13.20;99.90;;;;;;5093683;28;20186;-41
2022/07/01 03:23:37;;;;;;;7.90;2.17;;;13.30;99.90;;;;;;5093422;28;20181;-42
2022/07/01 03:26:03;;;;;;;5.17;2.00;;;13.20;99.90;;;;;;5093661;28;20188;-41
2022/07/01 03:28:31;;;;;;;4.37;2.10;;;13.30;99.90;;;;;;5093235;28;20171;-39
2022/07/01 03:30:57;;;;;;;3.20;1.90;;;13.30;99.90;;;;;;5093556;28;20186;-42
2022/07/01 03:33:22;;;;;;;8.73;2.37;;;13.30;99.90;;;;;;5093463;28;20550;-41
2022/07/01 03:35:48;;;;;;;5.13;2.20;;;13.30;99.90;;;;;;5093353;28;20639;-39
2022/07/01 03:38:14;;;;;;;7.83;2.27;;;13.30;99.90;;;;;;5093307;28;20177;-41
2022/07/01 03:40:39;;;;;;;4.67;2.43;;;13.30;99.90;;;;;;5094087;28;20296;-45
2022/07/01 03:43:05;;;;;;;4.20;2.00;;;13.30;99.90;;;;;;5097323;28;20203;-43
2022/07/01 03:45:31;;;;;;;3.53;1.80;;;13.30;99.90;;;;;;5098971;28;20179;-44
2022/07/01 03:47:57;;;;;;;6.47;2.10;;;13.30;99.90;;;;;;5098866;28;20649;-40
2022/07/01 03:50:24;;;;;;;5.03;1.83;;;13.30;99.90;;;;;;5091758;28;20208;-41
2022/07/01 03:54:29;;;;;;;4.67;2.30;;;13.30;99.90;;;;;;5096025;28;20617;-43
2022/07/01 03:55:37;;;;;;;9.63;2.30;;;13.30;99.90;;;;;;5099065;28;20704;-44
2022/07/01 03:58:03;;;;;;;2.87;1.93;;;13.40;99.90;;;;;;5099070;28;20666;-44
2022/07/01 04:00:30;;;;;;;4.90;2.00;;;13.40;99.90;;;;;;5098572;28;20200;-43
2022/07/01 04:02:55;;;;;;;3.00;2.13;;;13.40;99.90;;;;;;5098569;28;20203;-42
2022/07/01 04:05:21;;;;;;;6.87;2.20;;;13.50;99.90;;;;;;5098761;28;20175;-43
2022/07/01 04:07:47;;;;;;;3.13;1.63;;;13.50;99.90;;;;;;5098435;28;20616;-45
2022/07/01 04:10:13;;;;;;;2.97;1.87;;;13.50;99.90;;;;;;5098547;28;20226;-41
2022/07/01 04:12:40;;;;;;;3.83;2.20;;;13.40;99.90;;;;;;5098493;28;20191;-45
2022/07/01 04:15:06;;;;;;;6.03;2.20;;;13.50;99.90;;;;;;5114496;28;20194;-44
2022/07/01 04:17:32;;;;;;;9.63;2.00;;;13.60;99.90;;;;;;5097499;28;20267;-44
2022/07/01 04:19:58;;;;;;;3.70;1.67;;;13.60;99.90;;;;;;5092823;28;20281;-40
2022/07/01 04:22:32;;;;;;;6.57;1.80;;;13.50;99.90;;;;;;5092463;28;20257;-38
2022/07/01 04:24:58;;;;;;;5.97;1.93;;;13.60;99.90;;;;;;5096503;28;20159;-40
2022/07/01 04:27:24;;;;;;;5.83;2.03;;;13.60;99.90;;;;;;5097020;28;20190;-39
2022/07/01 04:29:50;;;;;;;4.77;1.60;;;13.60;99.90;;;;;;5096245;28;20654;-40
2022/07/01 04:32:15;;;;;;;5.73;1.83;;;13.60;99.90;;;;;;5097178;28;20289;-41
2022/07/01 04:34:41;;;;;;;3.30;1.90;;;13.70;99.90;;;;;;5096767;28;20175;-40
2022/07/01 04:37:06;;;;;;;4.97;2.10;;;13.70;99.90;;;;;;5096261;28;20281;-40
2022/07/01 04:39:32;;;;;;;6.23;2.40;;;13.70;99.90;;;;;;5097348;28;20534;-39
2022/07/01 04:42:01;;;;;;;3.57;2.20;;;13.70;99.90;;;;;;5096141;28;20178;-40
2022/07/01 04:44:34;;;;;;;7.07;2.30;;;13.70;99.90;;;;;;5094853;28;20198;-40
2022/07/01 04:47:00;;;;;;;5.80;2.03;;;13.80;99.90;;;;;;5097542;28;20194;-41
2022/07/01 04:49:27;;;;;;;4.80;2.37;;;13.80;99.90;;;;;;5096137;28;20278;-39
2022/07/01 04:51:52;;;;;;;6.40;2.50;;;13.80;99.90;;;;;;5097193;28;20203;-40
2022/07/01 04:54:18;;;;;;;3.67;2.20;;;13.80;99.90;;;;;;5096114;28;20194;-40
2022/07/01 04:56:45;;;;;;;5.33;2.20;;;13.80;99.90;;;;;;5094518;28;20187;-39
2022/07/01 04:59:12;;;;;;;3.23;2.20;;;13.80;99.90;;;;;;5095663;28;20209;-40
2022/07/01 05:01:40;;;;;;;4.67;2.60;;;13.90;99.90;;;;;;5096015;28;20206;-40
2022/07/01 05:04:06;;;;;;;4.17;2.60;;;13.90;99.90;;;;;;5095962;28;20183;-40
2022/07/01 05:06:32;;;;;;;2.63;1.77;;;13.90;99.90;;;;;;5096366;28;20182;-39
2022/07/01 05:08:58;;;;;;;4.90;2.10;;;14.00;99.90;;;;;;5095859;28;20210;-40
2022/07/01 05:11:23;;;;;;;2.97;1.93;;;14.00;99.90;;;;;;5095725;28;20278;-40
2022/07/01 05:13:49;;;;;;;4.17;2.37;;;14.10;99.90;;;;;;5095574;28;20574;-42
2022/07/01 05:16:14;;;;;;;2.60;1.77;;;14.00;99.90;;;;;;5095977;28;20213;-41
2022/07/01 05:24:08;;;;;;;4.33;2.10;;;14.10;99.90;;;;;;5101543;28;20215;-42
2022/07/01 05:26:34;;;;;;;5.50;2.20;;;14.10;99.90;;;;;;5101495;28;20167;-44
2022/07/01 05:29:00;;;;;;;3.90;2.50;;;14.20;99.90;;;;;;5100989;28;20205;-44
2022/07/01 05:31:25;;;;;;;4.83;2.10;;;14.10;99.90;;;;;;5101003;28;20764;-45
2022/07/01 05:33:51;;;;;;;5.93;2.40;;;14.10;99.90;;;;;;5100526;28;20211;-44
2022/07/01 05:36:17;;;;;;;2.70;1.80;;;14.20;99.90;;;;;;5100198;28;20190;-44
2022/07/01 05:38:43;;;;;;;4.07;2.37;;;14.20;99.90;;;;;;5101341;28;20577;-45
2022/07/01 05:41:09;;;;;;;4.67;2.13;;;14.30;99.90;;;;;;5100701;28;20698;-45
2022/07/01 05:43:34;;;;;;;2.97;1.93;;;14.20;99.90;;;;;;5100903;28;20525;-44
2022/07/01 05:46:00;;;;;;;5.47;2.17;;;14.30;99.90;;;;;;5100785;28;20225;-44
2022/07/01 05:48:26;;;;;;;6.20;2.20;;;14.30;99.90;;;;;;5100549;28;20186;-44
2022/07/01 05:50:52;;;;;;;3.73;2.17;;;14.40;99.90;;;;;;5100953;28;20666;-43
2022/07/01 05:53:19;;;;;;;7.53;2.63;;;14.30;99.90;;;;;;5100349;28;20210;-42
2022/07/01 05:55:44;;;;;;;3.63;2.27;;;14.40;99.90;;;;;;5099595;28;20175;-44
2022/07/01 05:58:10;;;;;;;5.67;2.17;;;14.40;99.90;;;;;;5099890;28;20263;-44
2022/07/01 06:00:37;;;;;;;6.63;2.50;;;14.50;99.90;;;;;;5100260;28;20201;-44
2022/07/01 06:03:03;;;;;;;2.77;2.17;;;14.60;99.90;;;;;;5098596;28;20270;-44
2022/07/01 06:05:30;;;;;;;2.80;2.50;;;14.60;99.90;;;;;;5100093;28;20217;-44
2022/07/01 06:07:55;;;;;;;4.00;2.27;;;14.80;99.90;;;;;;5100087;28;20714;-44
2022/07/01 06:10:21;;;;;;;7.03;2.60;;;14.80;99.90;;;;;;5100792;28;20230;-44
2022/07/01 06:12:46;;;;;;;6.10;2.57;;;14.90;99.90;;;;;;5103126;28;20275;-44
2022/07/01 06:15:12;;;;;;;3.17;2.60;;;14.90;99.90;;;;;;5100164;28;20175;-43
2022/07/01 06:17:40;;;;;;;7.77;3.10;;;15.00;99.90;;;;;;5100106;28;20611;-44
2022/07/01 06:20:06;;;;;;;4.70;3.27;;;15.10;99.90;;;;;;5099285;28;20201;-44
2022/07/01 06:22:32;;;;;;;6.60;3.37;;;15.20;99.90;;;;;;5099381;28;20562;-43
2022/07/01 06:24:59;;;;;;;6.93;3.27;;;15.20;99.90;;;;;;5099151;28;20541;-43
2022/07/01 06:27:25;;;;;;;4.53;3.57;;;15.20;99.90;;;;;;5097477;28;20287;-40
2022/07/01 06:29:51;;;;;;;4.57;3.30;;;15.20;99.90;;;;;;5099297;28;20684;-41
2022/07/01 06:32:16;;;;;;;4.50;3.37;;;15.20;99.90;;;;;;5094144;28;20254;-41
2022/07/01 06:34:42;;;;;;;5.87;3.83;;;15.20;99.90;;;;;;5094116;28;20698;-43
2022/07/01 06:37:08;;;;;;;4.87;3.30;;;15.20;99.90;;;;;;5094712;28;20187;-40
2022/07/01 06:39:33;;;;;;;6.50;3.73;;;15.30;99.90;;;;;;5093802;28;20256;-39
2022/07/01 06:41:59;;;;;;;4.40;3.20;;;15.30;99.90;;;;;;5093975;28;20175;-38
2022/07/01 06:44:24;;;;;;;9.00;3.67;;;15.30;99.90;;;;;;5094131;28;20183;-40
2022/07/01 06:46:50;;;;;;;4.07;2.87;;;15.30;99.90;;;;;;5093447;28;20668;-39
2022/07/01 06:49:16;;;;;;;4.33;2.70;;;15.30;99.90;;;;;;5093790;28;20198;-41
2022/07/01 06:51:41;;;;;;;4.57;2.90;;;15.30;99.90;;;;;;5093923;28;20559;-40
2022/07/01 06:54:07;;;;;;;7.50;2.97;;;15.30;99.90;;;;;;5093662;28;20171;-38
2022/07/01 06:56:33;;;;;;;5.47;2.90;;;15.40;99.90;;;;;;5093676;28;20643;-40
2022/07/01 06:58:58;;;;;;;7.00;2.67;;;15.40;99.90;;;;;;5093597;28;20202;-41
2022/07/01 07:01:24;;;;;;;7.13;3.10;;;15.50;99.90;;;;;;5093663;28;20217;-41
2022/07/01 07:03:50;;;;;;;3.23;2.37;;;15.70;99.90;;;;;;5094480;28;20556;-40
2022/07/01 07:06:15;;;;;;;7.13;2.70;;;15.80;99.90;;;;;;5095134;28;20174;-38
2022/07/01 07:08:41;;;;;;;6.40;2.30;;;16.00;99.90;;;;;;5092188;28;20674;-40
2022/07/01 07:11:08;;;;;;;4.40;2.40;;;16.10;99.90;;;;;;5093745;28;20225;-40
2022/07/01 07:13:35;;;;;;;3.80;2.27;;;16.20;99.90;;;;;;5093652;28;20252;-39
2022/07/01 07:16:00;;;;;;;4.50;2.73;;;16.20;99.90;;;;;;5093489;28;20175;-39
2022/07/01 07:18:26;;;;;;;3.73;2.43;;;16.30;99.90;;;;;;5093436;28;20175;-39
2022/07/01 07:20:51;;;;;;;6.80;2.67;;;16.30;99.90;;;;;;5093445;28;20175;-39
2022/07/01 07:23:17;;;;;;;6.80;2.43;;;16.30;99.90;;;;;;5093528;28;20208;-40
2022/07/01 07:25:42;;;;;;;4.10;1.87;;;16.30;99.90;;;;;;5092173;28;20182;-40
2022/07/01 07:28:08;;;;;;;3.83;1.90;;;16.30;99.90;;;;;;5092111;28;20651;-38
2022/07/01 07:30:33;;;;;;;9.10;2.73;;;16.30;99.90;;;;;;5093298;28;20195;-43
2022/07/01 07:32:59;;;;;;;5.17;2.20;;;16.30;99.90;;;;;;5093445;28;20310;-43
2022/07/01 07:35:25;;;;;;;6.13;2.00;;;16.30;99.90;;;;;;5093510;28;20171;-43
2022/07/01 07:37:50;;;;;;;3.37;1.90;;;16.30;99.90;;;;;;5092129;28;20225;-42
2022/07/01 07:40:19;;;;;;;4.97;1.70;;;16.40;99.90;;;;;;5093464;28;20248;-43
2022/07/01 07:42:46;;;;;;;3.20;2.00;;;16.40;99.90;;;;;;5093571;28;20179;-43
2022/07/01 07:45:13;;;;;;;6.53;2.07;;;16.50;99.90;;;;;;5093190;28;20202;-42
2022/07/01 07:47:42;;;;;;;3.10;1.80;;;16.60;99.90;;;;;;5093262;28;20171;-42
2022/07/01 07:50:08;;;;;;;3.37;2.00;;;16.90;99.90;;;;;;5093036;28;20187;-43
2022/07/01 07:52:34;;;;;;;7.17;1.90;;;17.10;99.90;;;;;;5093360;28;20289;-43
2022/07/01 07:55:00;;;;;;;2.40;1.80;;;17.40;99.90;;;;;;5093532;28;20604;-43
2022/07/01 07:57:25;;;;;;;7.63;2.43;;;17.60;99.90;;;;;;5095394;28;20224;-43
2022/07/01 07:59:51;;;;;;;6.13;1.97;;;17.80;99.90;;;;;;5097347;28;20198;-41
2022/07/01 08:02:17;;;;;;;3.43;1.73;;;18.00;99.90;;;;;;5097258;28;20589;-42
2022/07/01 08:04:42;;;;;;;2.17;1.37;;;18.10;99.90;;;;;;5097347;28;20228;-43
2022/07/01 08:07:08;;;;;;;4.17;2.10;;;18.20;99.90;;;;;;5096905;28;20190;-43
2022/07/01 08:09:34;;;;;;;7.70;1.90;;;18.20;99.90;;;;;;5096833;28;20210;-43
2022/07/01 08:12:00;;;;;;;2.03;1.40;;;18.40;99.90;;;;;;5096985;28;20210;-43
2022/07/01 08:14:26;;;;;;;2.97;1.53;;;18.40;99.90;;;;;;5096981;28;20175;-44
2022/07/01 08:16:52;;;;;;;5.33;1.90;;;18.50;99.90;;;;;;5096712;28;20173;-43
2022/07/01 08:19:17;;;;;;;2.57;1.50;;;18.50;99.90;;;;;;5096701;28;20191;-42
2022/07/01 08:21:43;;;;;;;4.07;2.03;;;18.50;99.90;;;;;;5096515;28;20263;-43
2022/07/01 08:24:08;;;;;;;3.43;1.60;;;18.50;99.90;;;;;;5096777;28;20175;-44
2022/07/01 08:26:34;;;;;;;4.57;2.23;;;18.40;99.90;;;;;;5096725;28;20179;-43
2022/07/01 08:28:59;;;;;;;1.90;1.57;;;18.40;99.90;;;;;;5096355;28;20286;-42
2022/07/01 08:31:25;;;;;;;2.50;1.33;;;18.40;99.90;;;;;;5096417;28;20196;-44
2022/07/01 08:33:50;;;;;;;2.53;1.67;;;18.30;99.90;;;;;;5096945;28;20217;-44
2022/07/01 08:36:16;;;;;;;4.43;1.80;;;18.20;99.90;;;;;;5097217;28;20228;-45
2022/07/01 08:38:42;;;;;;;4.13;1.77;;;18.20;99.90;;;;;;5097453;28;20285;-44
2022/07/01 08:41:08;;;;;;;9.43;1.87;;;18.10;99.90;;;;;;5097241;28;20619;-44
2022/07/01 08:43:34;;;;;;;2.63;1.53;;;18.20;99.90;;;;;;5097783;28;20182;-44
2022/07/01 08:46:01;;;;;;;2.87;1.50;;;18.10;99.90;;;;;;5097547;28;20183;-44
2022/07/01 08:48:30;;;;;;;3.93;1.33;;;18.20;99.90;;;;;;5098091;28;20206;-44
2022/07/01 08:50:56;;;;;;;2.10;1.50;;;18.20;99.90;;;;;;5098075;28;20175;-44
2022/07/01 08:53:22;;;;;;;2.53;1.30;;;18.30;99.90;;;;;;5096335;28;20217;-44
2022/07/01 08:58:32;;;;;;;2.83;1.60;;;18.50;99.90;;;;;;5096354;28;20211;-43
2022/07/01 09:01:20;;;;;;;3.63;1.50;;;18.70;99.90;;;;;;5095923;28;20638;-44
2022/07/01 09:03:47;;;;;;;3.07;1.60;;;19.00;99.90;;;;;;5097182;28;20615;-43
2022/07/01 09:06:16;;;;;;;2.07;1.40;;;19.40;99.90;;;;;;5097598;28;20274;-42
2022/07/01 09:08:43;;;;;;;3.00;1.60;;;19.60;99.90;;;;;;5095299;28;20331;-43
2022/07/01 09:11:23;;;;;;;2.80;1.40;;;19.70;99.90;;;;;;5095932;28;20179;-42
2022/07/01 09:14:09;;;;;;;4.00;1.80;;;19.60;99.90;;;;;;5095620;28;20244;-42
2022/07/01 09:16:44;;;;;;;4.70;1.50;;;19.60;99.90;;;;;;5095778;28;20255;-42
2022/07/01 09:19:11;;;;;;;1.73;1.20;;;19.60;99.90;;;;;;5095657;28;20195;-42
2022/07/01 09:21:36;;;;;;;2.43;1.17;;;19.70;99.90;;;;;;5095456;28;20179;-44
2022/07/01 09:24:30;;;;;;;5.00;2.17;;;19.70;99.90;;;;;;5098433;28;20662;-44
2022/07/01 09:27:01;;;;;;;1.77;0.90;;;19.90;99.90;;;;;;5071776;28;20231;-41
2022/07/01 09:29:35;;;;;;;2.10;0.90;;;19.90;99.90;;;;;;5095264;28;20681;-42
2022/07/01 09:32:03;;;;;;;2.30;1.03;;;20.00;99.90;;;;;;5093865;28;20217;-43
2022/07/01 09:34:46;;;;;;;1.97;0.70;;;20.10;99.90;;;;;;5095206;28;20536;-44
2022/07/01 09:37:17;;;;;;;1.67;0.50;;;20.10;99.90;;;;;;5095085;28;20166;-44
2022/07/01 09:39:51;;;;;;;1.80;0.70;;;20.10;99.90;;;;;;5095033;28;20247;-43
2022/07/01 09:42:21;;;;;;;2.97;0.70;;;20.20;99.90;;;;;;5095350;28;20246;-43
2022/07/01 09:45:00;;;;;;;1.83;0.93;;;20.30;99.90;;;;;;5095263;28;20191;-43
2022/07/01 09:47:27;;;;;;;0.53;0.50;;;20.30;99.90;;;;;;5095722;28;20167;-43
2022/07/01 09:49:54;;;;;;;3.97;0.70;;;20.40;99.90;;;;;;5095059;28;20202;-44
2022/07/01 09:52:20;;;;;;;2.17;0.80;;;20.30;99.90;;;;;;5094755;28;20238;-44
2022/07/01 09:54:48;;;;;;;1.60;0.67;;;20.30;99.90;;;;;;5095110;28;20178;-45
2022/07/01 09:57:17;;;;;;;4.57;1.00;;;20.40;99.90;;;;;;5094756;28;20171;-44
2022/07/01 09:59:43;;;;;;;4.93;1.43;;;20.50;99.90;;;;;;5095998;28;20715;-44
2022/07/01 10:02:10;;;;;;;1.47;0.70;;;20.70;99.90;;;;;;5096678;28;20249;-45
2022/07/01 10:04:46;;;;;;;2.17;0.80;;;20.90;99.90;;;;;;5097114;28;20189;-44
2022/07/01 10:07:29;;;;;;;3.57;0.83;;;20.90;99.90;;;;;;5097460;28;20727;-44
2022/07/01 10:10:29;;;;;;;2.50;0.70;;;20.90;99.90;;;;;;5097415;28;20281;-43
2022/07/01 10:12:56;;;;;;;3.63;0.97;;;21.00;99.90;;;;;;5098114;28;20559;-45
2022/07/01 10:15:23;;;;;;;1.33;0.70;;;21.00;99.90;;;;;;5098302;28;20175;-43
2022/07/01 10:17:50;;;;;;;1.13;0.67;;;20.90;99.90;;;;;;5098672;28;20180;-45
2022/07/01 10:20:18;;;;;;;1.97;0.67;;;20.90;99.90;;;;;;5097514;28;20277;-45
2022/07/01 10:22:45;;;;;;;0.57;0.53;;;20.80;99.90;;;;;;5097602;28;20205;-45
2022/07/01 10:25:34;;;;;;;3.13;0.70;;;20.80;99.90;;;;;;5097558;28;20262;-44
2022/07/01 10:28:19;;;;;;;0.97;0.50;;;20.70;99.90;;;;;;5097676;28;20183;-44
2022/07/01 10:31:01;;;;;;;3.73;0.90;;;20.60;99.90;;;;;;5097043;28;20177;-44
2022/07/01 10:33:32;;;;;;;0.57;0.47;;;20.80;99.90;;;;;;5097325;28;20376;-44
2022/07/01 10:36:16;;;;;;;1.97;0.63;;;21.00;99.90;;;;;;5094862;28;20634;-44
2022/07/01 10:39:00;;;;;;;2.17;0.70;;;21.30;99.90;;;;;;5094171;28;20206;-43
2022/07/01 10:41:29;;;;;;;0.67;0.57;;;21.40;99.90;;;;;;5093902;28;20174;-44
2022/07/01 10:43:55;;;;;;;1.90;0.77;;;21.60;99.90;;;;;;5093833;28;20174;-44
2022/07/01 10:46:41;;;;;;;2.33;0.77;;;21.60;99.90;;;;;;5093850;28;20692;-45
2022/07/01 10:49:08;;;;;;;2.03;0.57;;;21.70;99.90;;;;;;5093797;28;20218;-44
2022/07/01 10:51:52;;;;;;;2.80;0.60;;;21.80;99.90;;;;;;5093960;28;20561;-44
2022/07/01 10:54:36;;;;;;;1.13;0.60;;;22.00;99.90;;;;;;5093793;28;20163;-43
2022/07/01 10:57:20;;;;;;;2.37;0.80;;;22.00;99.90;;;;;;5095918;28;20538;-44
2022/07/01 10:59:50;;;;;;;2.47;0.70;;;22.10;99.90;;;;;;5093814;28;20198;-44
2022/07/01 11:02:21;;;;;;;0.70;0.57;;;22.20;99.90;;;;;;5094059;28;20186;-43
2022/07/01 11:04:47;;;;;;;2.07;0.67;;;22.20;99.90;;;;;;5093956;28;20175;-43
2022/07/01 11:07:13;;;;;;;1.27;0.80;;;22.20;99.90;;;;;;5093521;28;20182;-44
2022/07/01 11:09:39;;;;;;;1.50;0.50;;;22.20;99.90;;;;;;5093877;28;20550;-45
2022/07/01 11:12:06;;;;;;;1.73;0.70;;;22.20;99.90;;;;;;5093752;28;20206;-44
2022/07/01 11:14:37;;;;;;;2.07;0.60;;;22.20;99.90;;;;;;5093736;28;20548;-44
2022/07/01 11:17:03;;;;;;;2.27;0.80;;;22.20;99.90;;;;;;5093729;28;20179;-44
2022/07/01 11:19:29;;;;;;;1.73;0.77;;;22.20;99.90;;;;;;5093717;28;20222;-42
2022/07/01 11:21:55;;;;;;;1.83;0.60;;;22.20;99.90;;;;;;5093457;28;20695;-43
2022/07/01 11:24:22;;;;;;;1.00;0.60;;;22.20;99.90;;;;;;5093416;28;20232;-44
2022/07/01 11:29:27;;;;;;;1.07;0.60;;;22.10;99.90;;;;;;5090696;28;20227;-43
2022/07/01 11:31:54;;;;;;;3.20;0.83;;;22.30;99.90;;;;;;5095332;28;20186;-42
2022/07/01 11:34:20;;;;;;;2.80;0.50;;;22.40;99.90;;;;;;5097923;28;20174;-40
2022/07/01 11:39:34;;;;;;;0.80;0.53;;;22.60;99.90;;;;;;5097517;28;20202;-41
2022/07/01 11:42:03;;;;;;;1.17;0.60;;;22.70;99.90;;;;;;5098612;28;20524;-40
2022/07/01 11:44:39;;;;;;;3.13;0.80;;;22.80;99.90;;;;;;5096080;28;20175;-41
2022/07/01 11:47:07;;;;;;;2.07;0.50;;;22.70;99.90;;;;;;5097714;28;20211;-43
2022/07/01 11:49:42;;;;;;;2.77;0.60;;;22.60;99.90;;;;;;5097546;28;20549;-42
2022/07/01 11:52:10;;;;;;;0.80;0.57;;;22.60;99.90;;;;;;5098009;28;20543;-42
2022/07/01 11:54:38;;;;;;;2.70;0.60;;;22.60;99.90;;;;;;5097822;28;20190;-41
2022/07/01 11:57:16;;;;;;;1.67;0.77;;;22.60;99.90;;;;;;5098421;28;20175;-41
2022/07/01 11:59:43;;;;;;;1.33;0.47;;;22.60;99.90;;;;;;5098807;28;20202;-43
2022/07/01 12:02:11;;;;;;;1.57;0.63;;;22.60;99.90;;;;;;5098700;28;20634;-42
2022/07/01 12:04:38;;;;;;;2.40;0.57;;;22.70;99.90;;;;;;5097814;28;20179;-40
2022/07/01 12:07:04;;;;;;;0.80;0.40;;;23.00;99.90;;;;;;5098231;28;20179;-42
2022/07/01 12:09:30;;;;;;;2.37;0.50;;;23.30;99.90;;;;;;5097882;28;20190;-42
2022/07/01 12:11:56;;;;;;;1.20;0.60;;;23.50;99.90;;;;;;5098177;28;20202;-41
2022/07/01 12:14:22;;;;;;;2.03;0.50;;;23.80;99.90;;;;;;5097126;28;20178;-44
2022/07/01 12:16:52;;;;;;;1.40;0.40;;;24.00;99.90;;;;;;5096752;28;20211;-41
2022/07/01 12:19:17;;;;;;;5.10;0.60;;;24.10;99.90;;;;;;5096914;28;20553;-40
2022/07/01 12:21:54;;;;;;;1.27;0.53;;;24.20;99.90;;;;;;5095630;28;20182;-43
2022/07/01 12:24:24;;;;;;;1.23;0.60;;;24.20;99.90;;;;;;5096974;28;20238;-41
2022/07/01 12:27:04;;;;;;;2.23;0.70;;;24.20;99.90;;;;;;5096963;28;20184;-41
2022/07/01 12:29:50;;;;;;;1.07;0.70;;;24.30;99.90;;;;;;5095164;28;20234;-43
2022/07/01 12:32:24;;;;;;;0.70;0.60;;;24.30;99.90;;;;;;5097441;28;20210;-46
2022/07/01 12:35:03;;;;;;;3.30;0.93;;;24.30;99.90;;;;;;5097544;28;20182;-47
2022/07/01 12:37:32;;;;;;;1.03;0.73;;;24.10;99.90;;;;;;5096752;28;20538;-47
2022/07/01 12:39:58;;;;;;;1.47;0.80;;;24.00;99.90;;;;;;5098221;28;20553;-46
2022/07/01 12:42:37;;;;;;;2.00;0.80;;;23.90;99.90;;;;;;5098080;28;20175;-47
2022/07/01 12:45:05;;;;;;;1.50;0.63;;;23.90;99.90;;;;;;5097774;28;20162;-45
2022/07/01 12:47:33;;;;;;;1.77;0.60;;;24.10;99.90;;;;;;5097766;28;20179;-46
2022/07/01 12:50:26;;;;;;;3.13;0.83;;;24.30;99.90;;;;;;5098318;28;20252;-48
2022/07/01 12:53:00;;;;;;;3.13;0.80;;;24.30;99.90;;;;;;5097960;28;20193;-47
2022/07/01 12:55:27;;;;;;;2.83;0.50;;;24.30;99.90;;;;;;5096878;28;20178;-46
2022/07/01 12:57:59;;;;;;;2.57;0.60;;;24.30;99.90;;;;;;5097711;28;20630;-45
2022/07/01 13:00:27;;;;;;;2.53;0.60;;;24.30;99.90;;;;;;5098317;28;20650;-46
2022/07/01 13:02:54;;;;;;;3.90;0.60;;;24.20;99.90;;;;;;5097954;28;20575;-46
2022/07/01 13:05:20;;;;;;;0.53;0.40;;;24.40;99.90;;;;;;5097189;28;20227;-46